VAM Template | Jonatha

Virtual Airlines Manager! A new look to your va. By: Jonatha Silva




 METAR AND TAF INFORMATION
METAR FOR LICT
ADDS - METARS form results

(2002 UTC 23 April 2019)
Data provider http://aviationweather.gov/metar/data/
 
Forecast for: LICT (TRAPANI/BIRGI (A, IT)
Text: TAF LICT 231700Z 2318/2403 16010KT CAVOK
Forecast period: 1800 UTC 23 April 2019 to 0300 UTC 24 April 2019
Forecast type: FROM: standard forecast or significant change
Winds: from the SSE (160 degrees) at 12 MPH (10 knots; 5.1 m/s)
Visibility: 6 or more miles 10+ km)
Ceiling: unknown
Clouds: missing
Weather: NSW  (no significant weather)

 AIRPORT MAP

 RUNWAY INFORMATION
Runway 13 Runway length 8852 ft Runway width 148 ft
Runway elevation 10 ft Runway displaced threshold 0 ft Runway heading 128
Runway 31 Runway length 8852 ft Runway width 148 ft
Runway elevation 24 ft Runway displaced threshold 820 ft Runway heading 308

 AIRPORT FREQUENCIES
Type APP Name APP Frequency 36.23 MHZ
Type APP Name APP Frequency 119.95 MHZ
Type GND Name GND Frequency 39.685 MHZ
Type TWR Name TWR Frequency 119.7 MHZ

 AIRPORT NEAR NAVIGATION AIDS
Type VORTAC Name Trapani Frequency 108800 KHZ
Type NDB Name Trapani Frequency 318 KHZ